Time;durP1;ratioP1;P1;durP2;ratioP2;P2;SDS_P1;SDS_P2;PMS_P1;PMS_P2;Temp;Humidity;BMP_temperature;BMP_pressure;BME280_temperature;BME280_humidity;BME280_pressure;Samples;Min_cycle;Max_cycle;Signal;HPM_P1;HPM_P2
2022/01/25 00:25:30;;;;;;;22.67;20.30;;;3.00;52.60;;;;;;20717;6729;276831;-80
2022/01/25 00:27:53;;;;;;;21.37;19.27;;;3.40;52.40;;;;;;20554;6785;304787;-81
2022/01/25 00:30:30;;;;;;;17.20;15.33;;;3.70;51.60;;;;;;20871;6744;117215;-80
2022/01/25 00:33:00;;;;;;;18.33;16.63;;;3.50;51.10;;;;;;20516;6724;314435;-82
2022/01/25 00:35:36;;;;;;;22.30;19.93;;;3.50;51.20;;;;;;20718;6729;275801;-81
2022/01/25 00:38:13;;;;;;;19.93;18.00;;;4.00;50.40;;;;;;20505;6724;312686;-81
2022/01/25 00:40:49;;;;;;;20.70;18.53;;;3.90;50.30;;;;;;20729;6709;277641;-82
2022/01/25 00:43:26;;;;;;;19.37;17.40;;;4.10;49.70;;;;;;20768;6709;305898;-79
2022/01/25 00:46:05;;;;;;;15.40;13.80;;;4.20;49.20;;;;;;20977;6709;117448;-79
2022/01/25 00:48:48;;;;;;;18.13;16.33;;;3.90;49.20;;;;;;20587;6766;311470;-81
2022/01/25 00:54:26;;;;;;;12.80;11.53;;;3.60;50.00;;;;;;20737;6771;116215;-79
2022/01/25 00:56:49;;;;;;;16.23;14.70;;;3.30;51.70;;;;;;20676;6771;313256;-81
2022/01/25 00:59:27;;;;;;;16.85;15.25;;;3.30;51.70;;;;;;20711;6729;305186;-80
2022/01/25 01:02:03;;;;;;;16.90;15.37;;;3.60;51.20;;;;;;20710;6733;304353;-80
2022/01/25 01:04:43;;;;;;;15.52;14.13;;;3.80;50.50;;;;;;20692;6747;310367;-80
2022/01/25 01:07:19;;;;;;;15.67;14.20;;;4.00;49.80;;;;;;20615;6726;283210;-81
2022/01/25 01:09:55;;;;;;;13.00;11.60;;;4.10;49.30;;;;;;20930;6726;117158;-81
2022/01/25 01:13:12;;;;;;;12.90;11.53;;;3.80;49.30;;;;;;20900;6730;147201;-80
2022/01/25 01:15:32;;;;;;;17.33;12.87;;;3.40;50.00;;;;;;20918;6781;117119;-83
2022/01/25 01:29:53;;;;;;;18.60;16.73;;;3.50;51.40;;;;;;20745;6609;307438;-81
2022/01/25 01:33:31;;;;;;;18.07;16.37;;;3.70;50.90;;;;;;20715;6722;319613;-81
2022/01/25 01:38:10;;;;;;;18.05;16.25;;;3.90;50.20;;;;;;19879;6856;277668;-79
2022/01/25 01:43:35;;;;;;;18.30;16.60;;;3.70;49.90;;;;;;20693;6747;316354;-78
2022/01/25 01:49:07;;;;;;;14.93;13.50;;;3.70;50.20;;;;;;20934;6737;117289;-80
2022/01/25 01:51:43;;;;;;;14.23;12.77;;;3.50;50.30;;;;;;20774;6747;116066;-79
2022/01/25 01:54:17;;;;;;;17.60;15.90;;;3.10;50.90;;;;;;20783;6722;309506;-79
2022/01/25 01:56:55;;;;;;;15.40;13.93;;;3.10;51.20;;;;;;20895;6722;116498;-80
2022/01/25 01:59:32;;;;;;;15.87;14.17;;;3.00;50.90;;;;;;21002;6707;116143;-80
2022/01/25 02:02:10;;;;;;;14.50;12.20;;;2.70;51.20;;;;;;21002;6707;116981;-81
2022/01/25 02:04:46;;;;;;;14.23;12.97;;;2.50;51.60;;;;;;20984;6707;116559;-80
2022/01/25 02:07:22;;;;;;;13.23;11.93;;;2.30;52.00;;;;;;20921;6707;116317;-80
2022/01/25 02:09:58;;;;;;;18.50;16.70;;;2.40;52.10;;;;;;20769;6707;275415;-82
2022/01/25 02:12:34;;;;;;;18.70;17.02;;;2.40;52.70;;;;;;20740;6707;305117;-79
2022/01/25 02:15:09;;;;;;;18.40;16.70;;;2.80;52.10;;;;;;20780;6707;279666;-81
2022/01/25 02:23:21;;;;;;;14.83;13.43;;;3.20;51.20;;;;;;20938;6729;116161;-80
2022/01/25 02:25:55;;;;;;;14.27;12.87;;;2.50;53.00;;;;;;20940;6724;117111;-79
2022/01/25 02:28:33;;;;;;;17.60;15.98;;;2.50;52.10;;;;;;20480;6724;348234;-84
2022/01/25 02:31:06;;;;;;;16.47;14.97;;;2.60;52.00;;;;;;20724;6729;276140;-81
2022/01/25 02:33:43;;;;;;;16.53;14.83;;;2.80;51.30;;;;;;20930;6724;117514;-83
2022/01/25 02:36:27;;;;;;;14.07;12.67;;;2.80;51.30;;;;;;20953;6709;116943;-80
2022/01/25 02:39:01;;;;;;;14.37;12.87;;;2.60;51.60;;;;;;20999;6709;117668;-81
2022/01/25 02:41:37;;;;;;;13.57;12.10;;;2.30;52.10;;;;;;21009;6709;117270;-80
2022/01/25 02:44:17;;;;;;;15.43;13.23;;;2.20;52.50;;;;;;21040;6709;116030;-79
2022/01/25 02:49:23;;;;;;;14.53;13.13;;;1.90;52.90;;;;;;20802;6800;118077;-79
2022/01/25 02:52:02;;;;;;;15.63;13.17;;;1.80;53.00;;;;;;20940;6728;123770;-80
2022/01/25 02:54:38;;;;;;;16.03;14.00;;;1.70;53.10;;;;;;20906;6789;121144;-81
2022/01/25 02:57:10;;;;;;;18.23;16.43;;;1.60;53.10;;;;;;20628;6728;288069;-80
2022/01/25 02:59:45;;;;;;;17.13;14.30;;;1.80;53.20;;;;;;20889;6747;116291;-80
2022/01/25 03:02:21;;;;;;;19.30;17.37;;;1.90;52.60;;;;;;20665;6742;280637;-81
2022/01/25 03:04:56;;;;;;;18.47;16.83;;;2.10;52.90;;;;;;20634;6743;277132;-82
2022/01/25 03:07:33;;;;;;;18.67;16.93;;;2.50;52.00;;;;;;20503;6758;281145;-81
2022/01/25 03:10:08;;;;;;;18.77;16.87;;;2.80;51.30;;;;;;20659;6743;305062;-82
2022/01/25 03:12:52;;;;;;;19.00;17.20;;;3.00;50.60;;;;;;20676;6743;274957;-82
2022/01/25 03:15:29;;;;;;;18.37;16.60;;;3.20;50.20;;;;;;20724;6728;305074;-80
2022/01/25 03:18:02;;;;;;;16.17;14.47;;;3.30;49.70;;;;;;20733;6743;116627;-79
2022/01/25 03:20:51;;;;;;;20.75;18.60;;;3.10;49.80;;;;;;20678;6728;339456;-79
2022/01/25 03:23:23;;;;;;;17.70;15.10;;;3.00;50.10;;;;;;20932;6728;118439;-79
2022/01/25 03:25:59;;;;;;;18.20;14.67;;;2.80;50.10;;;;;;20907;6728;121430;-80
2022/01/25 03:28:34;;;;;;;16.13;14.27;;;2.50;50.60;;;;;;20878;6728;119013;-80
2022/01/25 03:31:10;;;;;;;14.60;13.10;;;2.20;51.20;;;;;;20815;6757;117661;-81
2022/01/25 03:33:45;;;;;;;15.60;13.97;;;2.00;51.50;;;;;;20815;6819;116493;-79
2022/01/25 03:36:22;;;;;;;16.40;13.80;;;1.80;52.30;;;;;;20824;6758;121998;-80
2022/01/25 03:39:01;;;;;;;15.47;13.40;;;1.70;52.10;;;;;;20835;6762;117452;-81
2022/01/25 03:41:34;;;;;;;16.97;14.17;;;1.60;52.30;;;;;;20832;6762;117637;-80
2022/01/25 03:44:12;;;;;;;15.90;13.87;;;1.60;52.50;;;;;;20860;6747;116050;-80
2022/01/25 03:52:24;;;;;;;20.50;18.30;;;1.40;53.00;;;;;;20729;6729;280704;-80
2022/01/25 03:54:55;;;;;;;16.03;14.40;;;1.70;53.10;;;;;;20936;6724;117104;-80
2022/01/25 03:57:31;;;;;;;19.30;14.23;;;1.80;52.50;;;;;;20838;6729;117404;-80
2022/01/25 04:00:07;;;;;;;19.23;17.40;;;1.70;52.60;;;;;;20678;6744;307598;-81
2022/01/25 04:02:52;;;;;;;15.70;14.10;;;1.90;52.50;;;;;;20910;6729;116785;-80
2022/01/25 04:05:32;;;;;;;16.33;14.17;;;1.90;52.50;;;;;;20945;6724;116541;-80
2022/01/25 04:07:57;;;;;;;17.57;14.10;;;1.60;52.70;;;;;;20808;6729;118984;-80
2022/01/25 04:10:33;;;;;;;17.70;14.33;;;1.60;52.60;;;;;;20940;6724;120236;-85
2022/01/25 04:13:08;;;;;;;16.13;14.43;;;1.50;52.80;;;;;;20950;6729;117140;-81
2022/01/25 04:15:46;;;;;;;16.40;14.20;;;1.30;53.00;;;;;;20907;6744;117612;-83
2022/01/25 04:18:34;;;;;;;20.27;18.27;;;1.30;53.30;;;;;;20546;6744;307859;-81
2022/01/25 04:26:40;;;;;;;21.48;19.37;;;2.30;52.10;;;;;;20711;6722;281600;-80
2022/01/25 04:29:15;;;;;;;23.00;18.03;;;2.70;50.90;;;;;;20958;6733;116577;-80
2022/01/25 04:31:55;;;;;;;22.20;18.30;;;2.50;50.70;;;;;;21011;6709;117549;-81
2022/01/25 04:51:40;;;;;;;21.07;15.93;;;2.00;52.40;;;;;;20887;6743;118649;-82
2022/01/25 04:55:21;;;;;;;;;;;;;;;;;;;;;
2022/01/25 04:57:09;;;;;;;20.62;18.62;;;1.80;52.80;;;;;;20135;6785;338983;-87
2022/01/25 04:59:45;;;;;;;21.07;18.90;;;1.90;52.60;;;;;;20753;6765;305445;-87
2022/01/25 05:02:19;;;;;;;17.50;15.70;;;2.30;51.70;;;;;;20922;6724;117138;-85
2022/01/25 05:04:55;;;;;;;20.10;18.20;;;2.20;51.40;;;;;;20558;6747;292798;-83
2022/01/25 05:10:08;;;;;;;18.70;15.23;;;2.40;50.60;;;;;;20355;6789;119422;-85
2022/01/25 05:12:54;;;;;;;18.93;17.13;;;2.20;50.80;;;;;;20671;6724;275869;-85
2022/01/25 05:16:03;;;;;;;19.30;17.50;;;2.20;50.70;;;;;;20704;6714;306694;-87
2022/01/25 05:18:22;;;;;;;17.40;14.67;;;2.40;50.40;;;;;;20604;6795;117529;-84
2022/01/25 05:23:39;;;;;;;20.48;18.48;;;1.90;50.80;;;;;;20704;6724;334193;-84
2022/01/25 05:26:14;;;;;;;16.23;14.40;;;2.00;51.40;;;;;;20913;6724;117304;-88
2022/01/25 05:28:50;;;;;;;15.43;13.87;;;1.90;51.20;;;;;;20881;6724;117546;-84
2022/01/25 05:31:25;;;;;;;20.13;18.13;;;1.60;51.60;;;;;;20749;6709;305422;-85
2022/01/25 05:34:01;;;;;;;16.80;15.10;;;1.70;51.90;;;;;;20920;6724;117701;-85
2022/01/25 05:36:38;;;;;;;15.47;13.83;;;1.70;51.80;;;;;;20833;6724;131825;-86
2022/01/25 05:39:36;;;;;;;16.90;14.17;;;1.50;52.10;;;;;;20862;6739;117784;-84
2022/01/25 05:42:00;;;;;;;17.60;13.87;;;1.30;52.60;;;;;;20836;6789;117045;-84
2022/01/25 05:46:15;;;;;;;16.47;13.97;;;1.10;52.90;;;;;;20870;6744;117107;-86
2022/01/25 05:47:07;;;;;;;20.03;17.97;;;1.20;53.50;;;;;;19937;6837;307580;-90
2022/01/25 05:49:43;;;;;;;21.20;19.10;;;1.20;53.50;;;;;;20763;6709;335486;-85
2022/01/25 05:52:17;;;;;;;16.97;15.23;;;1.60;52.70;;;;;;20978;6710;116540;-84
2022/01/25 05:54:56;;;;;;;16.60;14.23;;;1.70;52.40;;;;;;20953;6729;116663;-85
2022/01/25 05:57:30;;;;;;;19.85;17.95;;;1.50;52.60;;;;;;20641;6729;282486;-84
2022/01/25 06:00:06;;;;;;;15.80;14.20;;;1.60;52.40;;;;;;20949;6733;117546;-84
2022/01/25 06:02:42;;;;;;;20.70;18.70;;;1.60;52.00;;;;;;20789;6732;303737;-85
2022/01/25 06:05:23;;;;;;;20.77;18.77;;;1.70;51.70;;;;;;20812;6732;275520;-85
2022/01/25 06:07:55;;;;;;;20.60;18.52;;;2.00;50.90;;;;;;20611;6732;341096;-87
2022/01/25 06:10:31;;;;;;;17.00;15.20;;;2.20;50.50;;;;;;20706;6762;127048;-85
2022/01/25 06:13:12;;;;;;;21.10;18.93;;;2.10;50.40;;;;;;20628;6742;276652;-84
2022/01/25 06:15:45;;;;;;;20.57;18.67;;;2.10;50.60;;;;;;20592;6762;306897;-84
2022/01/25 06:18:20;;;;;;;21.23;19.13;;;2.30;50.10;;;;;;20479;6729;296780;-84
2022/01/25 06:20:57;;;;;;;19.93;18.00;;;2.40;49.50;;;;;;20612;6804;299312;-83
2022/01/25 06:23:34;;;;;;;17.70;15.17;;;2.50;49.10;;;;;;20914;6724;116113;-84
2022/01/25 06:26:10;;;;;;;19.50;17.60;;;2.30;49.20;;;;;;20697;6729;276194;-85
2022/01/25 06:28:47;;;;;;;17.07;15.37;;;2.20;49.80;;;;;;20943;6709;116986;-85
2022/01/25 06:31:22;;;;;;;15.80;14.10;;;2.00;49.90;;;;;;20909;6724;118025;-87
2022/01/25 06:33:58;;;;;;;18.93;17.13;;;1.70;50.30;;;;;;20704;6724;277107;-86
2022/01/25 06:36:33;;;;;;;20.17;18.17;;;1.70;50.60;;;;;;20562;6744;308860;-86
2022/01/25 06:39:09;;;;;;;19.17;16.13;;;2.00;50.20;;;;;;20890;6725;116423;-87
2022/01/25 06:41:46;;;;;;;16.07;14.37;;;1.90;50.00;;;;;;20918;6729;117581;-88
2022/01/25 06:44:21;;;;;;;19.97;18.07;;;1.60;50.40;;;;;;20688;6729;305728;-90
2022/01/25 06:46:57;;;;;;;20.77;18.67;;;1.60;50.80;;;;;;20613;6724;312362;-87
2022/01/25 06:50:08;;;;;;;18.03;15.47;;;1.90;50.10;;;;;;20897;6726;117495;-87
2022/01/25 06:52:11;;;;;;;20.67;18.70;;;1.80;50.40;;;;;;20527;6759;310831;-87
2022/01/25 06:54:57;;;;;;;;;;;;;;;;;;;;;
2022/01/25 06:57:22;;;;;;;17.70;16.00;;;2.00;50.00;;;;;;20820;6737;118439;-87
2022/01/25 06:59:58;;;;;;;20.17;18.27;;;1.80;49.80;;;;;;20707;6722;324189;-88
2022/01/25 07:02:34;;;;;;;21.20;19.00;;;1.80;50.40;;;;;;20683;6781;288091;-85
2022/01/25 07:05:09;;;;;;;22.70;20.50;;;2.10;50.00;;;;;;20735;6722;308001;-86
2022/01/25 07:07:46;;;;;;;20.33;17.83;;;2.20;49.60;;;;;;20766;6747;117539;-86
2022/01/25 07:10:23;;;;;;;17.83;15.83;;;2.10;49.70;;;;;;20945;6772;117174;-85
2022/01/25 07:12:56;;;;;;;19.57;15.13;;;1.70;50.20;;;;;;20926;6726;118655;-82
2022/01/25 07:15:31;;;;;;;18.40;14.40;;;1.40;50.80;;;;;;20936;6729;123126;-85
2022/01/25 07:18:07;;;;;;;22.57;16.10;;;1.20;51.30;;;;;;20833;6724;117769;-81
2022/01/25 07:20:42;;;;;;;30.47;26.60;;;1.00;51.70;;;;;;20719;6724;304668;-81
2022/01/25 07:23:20;;;;;;;21.33;19.07;;;1.20;52.30;;;;;;20741;6785;280837;-82
2022/01/25 07:25:55;;;;;;;25.10;21.73;;;1.60;51.80;;;;;;20967;6724;116203;-81
2022/01/25 07:28:31;;;;;;;21.87;17.27;;;1.60;51.30;;;;;;20787;6709;126994;-83
2022/01/25 07:31:06;;;;;;;16.20;14.13;;;1.40;51.70;;;;;;20851;6724;117267;-83
2022/01/25 07:33:42;;;;;;;23.23;20.83;;;1.30;52.10;;;;;;20775;6724;307404;-82
2022/01/25 07:36:17;;;;;;;23.90;21.50;;;1.50;52.50;;;;;;20649;6729;305292;-82
2022/01/25 07:38:53;;;;;;;19.73;17.33;;;1.90;52.10;;;;;;20962;6724;117625;-81
2022/01/25 07:41:30;;;;;;;21.50;19.40;;;2.00;51.80;;;;;;20770;6724;280466;-83
2022/01/25 07:44:05;;;;;;;23.30;20.97;;;2.10;51.70;;;;;;20684;6711;274365;-82
2022/01/25 07:46:41;;;;;;;20.20;17.43;;;2.50;51.10;;;;;;20742;6759;116600;-82
2022/01/25 07:49:17;;;;;;;19.23;16.13;;;2.40;50.90;;;;;;21028;6711;116510;-82
2022/01/25 07:51:52;;;;;;;19.07;16.10;;;2.30;51.40;;;;;;20924;6747;116536;-82
2022/01/25 07:54:28;;;;;;;18.93;15.57;;;2.10;51.80;;;;;;20965;6714;116678;-82
2022/01/25 07:57:03;;;;;;;18.47;15.53;;;2.00;52.20;;;;;;20691;6759;121442;-83
2022/01/25 07:59:39;;;;;;;16.87;14.30;;;2.00;52.60;;;;;;20989;6730;116154;-83
2022/01/25 08:02:15;;;;;;;19.83;17.83;;;2.00;52.90;;;;;;20470;6726;304510;-83
2022/01/25 08:04:50;;;;;;;17.23;15.13;;;2.30;52.30;;;;;;21042;6707;116434;-81
2022/01/25 08:07:26;;;;;;;16.70;14.90;;;2.50;51.90;;;;;;20881;6728;122220;-83
2022/01/25 08:10:01;;;;;;;16.53;14.83;;;2.50;52.00;;;;;;21002;6722;116217;-83
2022/01/25 08:12:37;;;;;;;15.37;13.77;;;2.50;52.20;;;;;;20524;6722;118361;-82
2022/01/25 08:15:13;;;;;;;15.70;13.83;;;2.50;52.40;;;;;;20999;6722;119347;-83
2022/01/25 08:17:50;;;;;;;20.00;18.03;;;2.50;52.50;;;;;;20526;6741;307221;-83
2022/01/25 08:20:25;;;;;;;19.55;17.55;;;2.80;51.90;;;;;;20676;6759;276833;-84
2022/01/25 08:23:01;;;;;;;20.52;18.55;;;3.30;50.90;;;;;;20738;6738;292808;-84
2022/01/25 08:25:36;;;;;;;16.40;14.80;;;3.70;49.70;;;;;;21004;6727;116550;-84
2022/01/25 08:28:12;;;;;;;15.57;13.97;;;3.80;49.70;;;;;;20808;6722;117789;-83
2022/01/25 08:30:48;;;;;;;15.60;13.77;;;3.60;50.10;;;;;;20936;6741;116416;-82
2022/01/25 08:33:33;;;;;;;15.13;13.50;;;3.50;50.70;;;;;;20968;6737;67534;-83
2022/01/25 08:36:00;;;;;;;18.30;16.57;;;3.50;51.20;;;;;;20770;6727;334095;-82
2022/01/25 08:38:45;;;;;;;14.97;13.47;;;3.70;50.40;;;;;;20753;6794;120230;-82
2022/01/25 08:41:11;;;;;;;18.97;17.17;;;3.80;50.20;;;;;;20775;6727;309726;-82
2022/01/25 08:43:48;;;;;;;19.20;17.42;;;4.10;49.70;;;;;;20721;6757;333768;-81
2022/01/25 08:46:23;;;;;;;17.90;14.63;;;4.50;48.80;;;;;;20913;6742;116298;-82
2022/01/25 08:48:59;;;;;;;16.97;14.93;;;4.60;48.80;;;;;;20981;6727;116608;-82
2022/01/25 08:51:34;;;;;;;16.23;14.47;;;4.50;49.30;;;;;;21053;6707;116613;-83
2022/01/25 08:54:10;;;;;;;20.00;18.07;;;4.40;49.70;;;;;;20825;6707;294552;-83
2022/01/25 08:56:46;;;;;;;20.53;18.60;;;4.70;49.50;;;;;;20711;6722;277833;-87
2022/01/25 08:59:22;;;;;;;19.95;18.15;;;5.10;48.30;;;;;;20776;6726;294437;-83
2022/01/25 09:02:02;;;;;;;21.42;19.42;;;5.50;47.50;;;;;;20774;6726;305234;-82
2022/01/25 09:04:39;;;;;;;22.50;20.40;;;5.80;46.60;;;;;;20764;6746;305661;-84
2022/01/25 09:07:11;;;;;;;19.90;16.93;;;6.10;46.30;;;;;;20942;6722;116588;-83
2022/01/25 09:09:44;;;;;;;20.30;17.03;;;6.00;46.40;;;;;;21000;6722;117517;-83
2022/01/25 09:12:19;;;;;;;22.10;19.90;;;5.80;47.00;;;;;;20777;6728;275277;-82
2022/01/25 09:14:55;;;;;;;20.10;18.00;;;5.80;46.90;;;;;;20982;6722;123463;-83
2022/01/25 09:17:30;;;;;;;18.73;16.43;;;5.90;47.10;;;;;;20868;6728;117121;-83
2022/01/25 09:20:06;;;;;;;19.67;16.70;;;5.80;47.60;;;;;;20993;6722;116248;-83
2022/01/25 09:22:43;;;;;;;18.67;16.30;;;5.70;47.80;;;;;;20973;6722;121211;-82
2022/01/25 09:25:19;;;;;;;18.67;16.47;;;5.60;48.10;;;;;;21057;6707;121268;-83
2022/01/25 09:27:55;;;;;;;23.00;20.60;;;5.50;48.40;;;;;;20714;6707;309294;-82
2022/01/25 09:30:30;;;;;;;22.40;20.20;;;5.70;48.00;;;;;;20810;6707;319601;-83
2022/01/25 09:33:05;;;;;;;20.63;18.63;;;6.10;46.90;;;;;;20828;6707;304174;-83
2022/01/25 09:35:42;;;;;;;21.67;19.60;;;6.50;46.30;;;;;;20638;6707;340987;-84
2022/01/25 09:38:17;;;;;;;20.98;18.83;;;6.80;45.20;;;;;;20531;6816;335305;-83
2022/01/25 09:40:53;;;;;;;18.67;16.67;;;6.90;45.20;;;;;;21062;6707;115874;-83
2022/01/25 09:43:30;;;;;;;17.93;15.17;;;6.90;45.20;;;;;;21059;6707;116495;-83
2022/01/25 09:46:04;;;;;;;18.15;16.45;;;6.70;45.80;;;;;;20859;6707;277742;-84
2022/01/25 09:48:40;;;;;;;19.70;17.90;;;6.80;44.90;;;;;;20793;6707;303129;-84
2022/01/25 09:51:17;;;;;;;16.90;15.20;;;7.10;44.30;;;;;;21049;6707;116083;-83
2022/01/25 09:53:54;;;;;;;19.00;17.17;;;7.10;43.90;;;;;;20842;6707;295973;-85
2022/01/25 09:56:30;;;;;;;16.93;15.23;;;7.10;43.90;;;;;;21012;6707;118639;-83
2022/01/25 09:59:05;;;;;;;16.17;14.57;;;7.00;44.20;;;;;;20993;6722;116635;-83
2022/01/25 10:01:40;;;;;;;15.60;14.00;;;6.80;44.70;;;;;;20997;6722;116795;-83
2022/01/25 10:04:26;;;;;;;13.70;12.30;;;6.70;45.10;;;;;;21004;6722;116675;-83
2022/01/25 10:07:04;;;;;;;16.63;15.10;;;6.50;45.40;;;;;;20599;6744;277128;-82
2022/01/25 10:09:40;;;;;;;15.80;14.10;;;6.70;44.50;;;;;;20952;6742;120611;-82
2022/01/25 10:12:19;;;;;;;16.10;13.87;;;6.80;44.60;;;;;;20950;6727;116134;-86
2022/01/25 10:15:01;;;;;;;17.58;15.80;;;6.80;45.00;;;;;;20704;6728;281465;-84
2022/01/25 10:17:37;;;;;;;15.60;14.03;;;6.90;44.40;;;;;;20868;6707;117263;-88
2022/01/25 10:20:26;;;;;;;18.63;16.83;;;7.00;44.40;;;;;;20813;6713;308590;-81
2022/01/25 10:23:08;;;;;;;17.83;16.17;;;7.20;43.60;;;;;;20778;6725;294914;-83
2022/01/25 10:25:43;;;;;;;17.00;15.20;;;7.50;43.60;;;;;;21049;6707;116645;-84
2022/01/25 10:28:25;;;;;;;18.07;16.47;;;7.50;43.70;;;;;;20683;6707;306352;-84
2022/01/25 10:31:04;;;;;;;16.93;15.13;;;7.60;43.30;;;;;;20982;6707;117020;-84
2022/01/25 10:33:49;;;;;;;16.10;14.43;;;7.60;43.50;;;;;;20990;6707;118239;-86
2022/01/25 10:36:22;;;;;;;17.33;15.63;;;7.50;43.90;;;;;;20717;6722;278131;-88
2022/01/25 10:38:57;;;;;;;16.67;15.00;;;7.60;43.30;;;;;;20708;6722;285357;-83
2022/01/25 10:41:36;;;;;;;13.67;12.53;;;7.90;42.90;;;;;;20721;6722;284872;-86
2022/01/25 10:44:08;;;;;;;13.18;12.07;;;8.20;41.30;;;;;;20740;6722;316578;-82
2022/01/25 10:46:44;;;;;;;12.02;11.12;;;8.50;40.30;;;;;;20735;6776;293173;-84
2022/01/25 10:49:20;;;;;;;11.60;10.50;;;8.70;39.60;;;;;;20918;6726;116587;-85
2022/01/25 10:51:55;;;;;;;13.70;12.60;;;8.50;40.80;;;;;;20770;6721;334780;-84
2022/01/25 10:55:04;;;;;;;11.93;10.70;;;8.50;39.80;;;;;;20935;6724;118805;-93
2022/01/25 10:57:24;;;;;;;12.90;11.90;;;8.50;40.50;;;;;;20537;6740;322095;-86
2022/01/25 11:00:00;;;;;;;10.67;9.77;;;8.50;40.50;;;;;;20988;6707;116982;-88
2022/01/25 11:02:35;;;;;;;12.60;11.30;;;8.40;40.70;;;;;;20950;6716;127935;-83
2022/01/25 11:05:11;;;;;;;14.85;13.48;;;8.20;41.00;;;;;;20783;6712;336453;-85
2022/01/25 11:07:46;;;;;;;14.77;11.70;;;8.30;41.50;;;;;;20869;6713;117953;-83
2022/01/25 11:10:22;;;;;;;13.23;11.90;;;8.20;41.60;;;;;;20955;6727;117227;-84
2022/01/25 11:13:04;;;;;;;15.77;14.30;;;8.10;42.00;;;;;;20709;6722;305213;-87
2022/01/25 11:15:37;;;;;;;15.88;14.45;;;8.60;42.50;;;;;;20698;6731;309853;-86
2022/01/25 11:18:12;;;;;;;14.20;12.80;;;8.60;41.80;;;;;;20849;6724;117417;-86
2022/01/25 11:20:48;;;;;;;15.13;12.93;;;8.70;41.90;;;;;;21021;6713;116040;-84
2022/01/25 11:23:23;;;;;;;13.37;12.03;;;8.60;42.10;;;;;;21060;6707;116061;-86
2022/01/25 11:26:05;;;;;;;13.73;12.20;;;8.50;42.30;;;;;;20942;6740;116189;-85
2022/01/25 11:32:15;;;;;;;12.57;11.27;;;8.20;42.60;;;;;;20937;6723;117274;-88
2022/01/25 11:34:52;;;;;;;15.00;13.63;;;8.30;42.40;;;;;;20688;6728;335650;-90
2022/01/25 11:37:27;;;;;;;13.50;12.40;;;8.20;42.30;;;;;;20615;6743;307272;-86
2022/01/25 11:40:05;;;;;;;12.10;11.15;;;9.00;40.80;;;;;;20762;6728;277467;-88
2022/01/25 11:42:42;;;;;;;12.37;10.73;;;9.00;40.70;;;;;;20941;6728;120001;-86
2022/01/25 11:45:30;;;;;;;10.60;9.60;;;8.90;40.90;;;;;;20976;6728;116511;-86
2022/01/25 11:47:56;;;;;;;12.07;11.05;;;8.70;41.40;;;;;;20586;6728;337735;-90
2022/01/25 11:50:32;;;;;;;12.45;11.35;;;8.80;41.00;;;;;;20704;6728;335624;-91
2022/01/25 11:53:07;;;;;;;10.97;9.93;;;9.10;40.40;;;;;;20980;6707;117267;-89
2022/01/25 11:55:55;;;;;;;12.75;11.65;;;9.10;40.60;;;;;;20733;6716;327715;-88
2022/01/25 11:58:24;;;;;;;13.60;12.20;;;9.10;40.30;;;;;;20751;6713;118243;-91
2022/01/25 12:01:03;;;;;;;14.05;12.73;;;9.10;40.20;;;;;;20730;6712;338810;-85
2022/01/25 12:03:55;;;;;;;14.10;12.97;;;9.20;40.90;;;;;;20733;6712;310318;-86
2022/01/25 12:06:47;;;;;;;;;;;;;;;;;;;;;
2022/01/25 12:09:43;;;;;;;12.73;11.63;;;9.70;39.70;;;;;;20744;6766;306044;-90
2022/01/25 12:12:08;;;;;;;11.10;10.10;;;9.60;39.80;;;;;;20961;6712;117107;-89
2022/01/25 12:14:49;;;;;;;12.40;11.20;;;9.50;39.70;;;;;;20857;6743;117264;-88
2022/01/25 12:17:26;;;;;;;11.87;10.77;;;9.30;40.30;;;;;;20834;6742;117253;-91
2022/01/25 12:20:03;;;;;;;12.60;10.50;;;9.00;40.80;;;;;;20930;6771;116249;-90
2022/01/25 12:22:42;;;;;;;11.97;10.70;;;8.60;41.60;;;;;;20936;6771;121010;-93
2022/01/25 12:25:25;;;;;;;13.50;12.30;;;8.60;41.50;;;;;;20603;6743;336690;-89
2022/01/25 12:28:05;;;;;;;15.70;11.27;;;8.80;41.70;;;;;;20868;6707;117362;-89
2022/01/25 12:30:42;;;;;;;13.27;10.67;;;8.80;41.50;;;;;;20915;6727;117902;-90
2022/01/25 12:33:21;;;;;;;12.73;11.73;;;8.70;41.80;;;;;;20747;6727;318129;-84
2022/01/25 12:35:59;;;;;;;13.13;11.57;;;8.80;41.10;;;;;;20912;6728;117535;-89
2022/01/25 12:38:38;;;;;;;13.52;12.23;;;8.80;41.10;;;;;;20496;6728;306966;-85
2022/01/25 12:41:17;;;;;;;14.10;12.68;;;9.00;41.10;;;;;;20748;6713;309739;-85
2022/01/25 12:43:55;;;;;;;13.45;12.25;;;9.20;40.40;;;;;;20739;6713;330167;-92
2022/01/25 12:46:37;;;;;;;11.67;10.67;;;9.40;40.40;;;;;;20910;6713;118518;-87
2022/01/25 12:49:16;;;;;;;13.00;11.80;;;9.30;40.60;;;;;;20959;6713;120528;-86
2022/01/25 12:51:52;;;;;;;14.10;12.90;;;9.10;41.20;;;;;;20694;6728;276806;-86
2022/01/25 12:54:26;;;;;;;13.43;12.13;;;9.10;40.80;;;;;;20959;6728;116925;-91
2022/01/25 12:57:00;;;;;;;12.40;11.40;;;9.00;40.80;;;;;;20820;6742;118461;-91
2022/01/25 12:59:36;;;;;;;22.20;19.80;;;8.80;41.20;;;;;;20699;6743;323679;-92
2022/01/25 13:02:11;;;;;;;14.67;13.47;;;8.80;41.20;;;;;;20689;6729;304320;-88
2022/01/25 13:04:47;;;;;;;12.23;11.17;;;9.10;41.10;;;;;;20889;6742;121286;-87
2022/01/25 13:07:32;;;;;;;13.87;12.43;;;9.00;40.40;;;;;;20768;6800;121322;-86
2022/01/25 13:09:59;;;;;;;13.30;12.10;;;8.70;40.70;;;;;;20921;6723;117643;-87
2022/01/25 13:12:37;;;;;;;15.63;14.17;;;8.50;41.20;;;;;;20735;6706;341828;-84
2022/01/25 13:15:34;;;;;;;13.90;12.60;;;8.60;41.60;;;;;;20970;6707;117603;-90
2022/01/25 13:17:49;;;;;;;13.97;12.67;;;8.60;41.60;;;;;;20738;6782;117408;-85
2022/01/25 13:20:24;;;;;;;14.20;12.77;;;8.40;41.90;;;;;;20925;6725;117481;-85
2022/01/25 13:23:00;;;;;;;14.10;12.80;;;8.20;42.30;;;;;;20902;6721;117716;-87
2022/01/25 13:26:06;;;;;;;16.53;15.13;;;8.10;42.60;;;;;;20684;6728;312932;-84
2022/01/25 13:28:51;;;;;;;15.77;14.03;;;8.30;43.30;;;;;;20681;6722;128859;-83
2022/01/25 13:31:09;;;;;;;15.20;13.60;;;8.30;43.00;;;;;;20893;6782;117233;-84
2022/01/25 13:33:45;;;;;;;18.27;16.37;;;8.40;43.50;;;;;;20704;6707;337882;-86
2022/01/25 13:36:22;;;;;;;16.13;14.63;;;8.30;43.40;;;;;;20844;6707;116991;-85
2022/01/25 13:38:58;;;;;;;15.07;13.50;;;8.40;43.10;;;;;;20931;6707;117423;-82
2022/01/25 13:41:41;;;;;;;17.77;15.98;;;8.20;43.30;;;;;;20691;6727;340560;-86
2022/01/25 13:46:46;;;;;;;20.73;15.13;;;8.40;43.40;;;;;;20787;6787;124360;-84
2022/01/25 13:49:21;;;;;;;18.93;17.23;;;8.20;43.50;;;;;;20694;6726;306473;-84
2022/01/25 13:51:57;;;;;;;19.20;17.40;;;8.40;43.90;;;;;;20698;6725;306050;-85
2022/01/25 13:54:33;;;;;;;18.58;16.85;;;8.80;43.40;;;;;;20734;6722;312461;-84
2022/01/25 13:57:10;;;;;;;19.50;17.70;;;9.10;42.70;;;;;;20626;6722;308381;-85
2022/01/25 13:59:44;;;;;;;18.70;16.77;;;9.30;42.40;;;;;;20896;6725;117546;-82
2022/01/25 14:02:19;;;;;;;19.07;15.67;;;9.10;42.40;;;;;;20932;6722;116052;-83
2022/01/25 14:05:02;;;;;;;19.37;16.40;;;8.80;42.90;;;;;;20937;6725;122045;-88
2022/01/25 14:07:38;;;;;;;16.43;14.70;;;8.50;43.20;;;;;;20789;6722;117441;-85
2022/01/25 14:10:21;;;;;;;18.63;16.83;;;8.30;43.60;;;;;;20920;6722;117198;-85
2022/01/25 14:21:58;;;;;;;24.13;21.73;;;8.90;43.20;;;;;;20758;6707;275331;-84
2022/01/25 14:24:16;;;;;;;20.83;18.73;;;9.10;42.60;;;;;;20898;6784;117653;-83
2022/01/25 14:26:53;;;;;;;22.83;20.13;;;8.90;42.80;;;;;;20819;6727;118387;-84
2022/01/25 14:29:29;;;;;;;24.63;22.20;;;8.60;43.30;;;;;;20702;6727;306068;-84
2022/01/25 14:32:07;;;;;;;24.07;18.73;;;8.60;43.70;;;;;;20987;6707;120605;-86
2022/01/25 14:34:44;;;;;;;20.27;18.27;;;8.60;43.80;;;;;;20963;6707;119926;-84
2022/01/25 14:37:21;;;;;;;23.03;20.77;;;8.40;44.40;;;;;;20614;6722;279080;-86
2022/01/25 14:40:06;;;;;;;23.92;21.62;;;8.40;43.90;;;;;;20708;6724;335134;-85
2022/01/25 14:42:53;;;;;;;21.27;19.13;;;8.70;43.10;;;;;;20677;6815;119502;-83
2022/01/25 14:45:22;;;;;;;19.43;17.53;;;8.60;43.00;;;;;;20867;6744;117998;-82
2022/01/25 14:47:58;;;;;;;20.83;18.20;;;8.30;43.30;;;;;;20743;6727;117593;-84
2022/01/25 14:50:34;;;;;;;19.97;17.87;;;8.10;43.70;;;;;;20875;6742;117545;-84
2022/01/25 14:53:08;;;;;;;22.83;20.45;;;7.80;43.90;;;;;;20650;6743;306246;-84
2022/01/25 14:55:50;;;;;;;23.45;21.10;;;8.00;44.30;;;;;;20798;6727;306884;-86
2022/01/25 14:59:22;;;;;;;23.00;20.43;;;8.30;43.90;;;;;;20761;6727;117633;-84
2022/01/25 15:00:59;;;;;;;21.40;19.20;;;8.30;43.70;;;;;;20929;6784;116516;-83
2022/01/25 15:03:55;;;;;;;21.57;18.63;;;8.10;44.00;;;;;;20757;6744;117636;-94